sensor_id;sensor_type;location;lat;lon;timestamp;pressure;altitude;pressure_sealevel;temperature;humidity
15662;BME280;7931;52.274;10.470;2022-08-01T00:01:01;100369.47;;;19.25;100.00
15662;BME280;7931;52.274;10.470;2022-08-01T00:03:27;100366.41;;;19.29;100.00
15662;BME280;7931;52.274;10.470;2022-08-01T00:05:52;100362.53;;;19.31;100.00
15662;BME280;7931;52.274;10.470;2022-08-01T00:08:17;100372.34;;;19.24;100.00
15662;BME280;7931;52.274;10.470;2022-08-01T00:10:43;100363.72;;;19.29;100.00
15662;BME280;7931;52.274;10.470;2022-08-01T00:13:08;100361.53;;;19.32;100.00
15662;BME280;7931;52.274;10.470;2022-08-01T00:15:34;100365.44;;;19.30;100.00
15662;BME280;7931;52.274;10.470;2022-08-01T00:17:59;100363.38;;;19.32;100.00
15662;BME280;7931;52.274;10.470;2022-08-01T00:20:25;100360.03;;;19.21;100.00
15662;BME280;7931;52.274;10.470;2022-08-01T00:22:50;100360.16;;;19.36;100.00
15662;BME280;7931;52.274;10.470;2022-08-01T00:25:16;100357.00;;;19.24;100.00
15662;BME280;7931;52.274;10.470;2022-08-01T00:27:41;100357.34;;;19.30;100.00
15662;BME280;7931;52.274;10.470;2022-08-01T00:30:07;100360.38;;;19.26;100.00
15662;BME280;7931;52.274;10.470;2022-08-01T00:32:32;100356.81;;;19.26;100.00
15662;BME280;7931;52.274;10.470;2022-08-01T00:34:58;100347.81;;;19.42;100.00
15662;BME280;7931;52.274;10.470;2022-08-01T00:37:23;100356.81;;;19.34;100.00
15662;BME280;7931;52.274;10.470;2022-08-01T00:39:48;100349.19;;;19.38;100.00
15662;BME280;7931;52.274;10.470;2022-08-01T00:42:14;100353.22;;;19.42;100.00
15662;BME280;7931;52.274;10.470;2022-08-01T00:44:39;100350.03;;;19.38;100.00
15662;BME280;7931;52.274;10.470;2022-08-01T00:47:06;100346.28;;;19.47;100.00
15662;BME280;7931;52.274;10.470;2022-08-01T00:49:31;100351.22;;;19.44;100.00
15662;BME280;7931;52.274;10.470;2022-08-01T00:51:57;100345.81;;;19.44;100.00
15662;BME280;7931;52.274;10.470;2022-08-01T00:54:24;100339.53;;;19.43;100.00
15662;BME280;7931;52.274;10.470;2022-08-01T00:56:50;100343.41;;;19.49;100.00
15662;BME280;7931;52.274;10.470;2022-08-01T00:59:17;100340.44;;;19.36;100.00
15662;BME280;7931;52.274;10.470;2022-08-01T01:01:42;100340.63;;;19.34;100.00
15662;BME280;7931;52.274;10.470;2022-08-01T01:04:08;100334.63;;;19.47;100.00
15662;BME280;7931;52.274;10.470;2022-08-01T01:06:44;100345.44;;;19.47;100.00
15662;BME280;7931;52.274;10.470;2022-08-01T01:09:39;100341.72;;;19.48;100.00
15662;BME280;7931;52.274;10.470;2022-08-01T01:15:25;100341.78;;;19.40;100.00
15662;BME280;7931;52.274;10.470;2022-08-01T01:17:59;100341.25;;;19.44;100.00
15662;BME280;7931;52.274;10.470;2022-08-01T01:20:36;100341.06;;;19.46;100.00
15662;BME280;7931;52.274;10.470;2022-08-01T01:31:10;100343.44;;;19.41;100.00
15662;BME280;7931;52.274;10.470;2022-08-01T01:33:39;100343.31;;;19.34;100.00
15662;BME280;7931;52.274;10.470;2022-08-01T01:36:09;100339.84;;;19.48;100.00
15662;BME280;7931;52.274;10.470;2022-08-01T01:38:39;100342.41;;;19.42;100.00
15662;BME280;7931;52.274;10.470;2022-08-01T01:41:07;100333.03;;;19.30;100.00
15662;BME280;7931;52.274;10.470;2022-08-01T01:43:35;100336.72;;;19.37;100.00
15662;BME280;7931;52.274;10.470;2022-08-01T01:46:02;100342.25;;;19.43;100.00
15662;BME280;7931;52.274;10.470;2022-08-01T01:48:28;100330.66;;;19.35;100.00
15662;BME280;7931;52.274;10.470;2022-08-01T01:50:54;100337.91;;;19.34;100.00
15662;BME280;7931;52.274;10.470;2022-08-01T01:53:22;100330.06;;;19.47;100.00
15662;BME280;7931;52.274;10.470;2022-08-01T01:55:50;100334.63;;;19.47;100.00
15662;BME280;7931;52.274;10.470;2022-08-01T01:58:18;100329.06;;;19.48;100.00
15662;BME280;7931;52.274;10.470;2022-08-01T02:00:46;100327.59;;;19.38;100.00
15662;BME280;7931;52.274;10.470;2022-08-01T02:03:14;100332.31;;;19.44;100.00
15662;BME280;7931;52.274;10.470;2022-08-01T02:05:41;100331.75;;;19.48;100.00
15662;BME280;7931;52.274;10.470;2022-08-01T02:08:07;100330.91;;;19.48;100.00
15662;BME280;7931;52.274;10.470;2022-08-01T02:10:36;100328.59;;;19.45;100.00
15662;BME280;7931;52.274;10.470;2022-08-01T02:13:04;100336.06;;;19.35;100.00
15662;BME280;7931;52.274;10.470;2022-08-01T02:15:31;100334.00;;;19.37;100.00
15662;BME280;7931;52.274;10.470;2022-08-01T02:17:59;100339.38;;;19.45;100.00
15662;BME280;7931;52.274;10.470;2022-08-01T02:20:30;100336.06;;;19.35;100.00
15662;BME280;7931;52.274;10.470;2022-08-01T02:23:00;100333.00;;;19.38;100.00
15662;BME280;7931;52.274;10.470;2022-08-01T02:25:31;100336.06;;;19.35;100.00
15662;BME280;7931;52.274;10.470;2022-08-01T02:28:03;100333.31;;;19.43;100.00
15662;BME280;7931;52.274;10.470;2022-08-01T02:30:37;100332.03;;;19.31;100.00
15662;BME280;7931;52.274;10.470;2022-08-01T02:33:18;100329.63;;;19.36;100.00
15662;BME280;7931;52.274;10.470;2022-08-01T02:35:48;100336.06;;;19.35;100.00
15662;BME280;7931;52.274;10.470;2022-08-01T02:38:16;100331.31;;;19.37;100.00
15662;BME280;7931;52.274;10.470;2022-08-01T02:40:45;100332.53;;;19.26;100.00
15662;BME280;7931;52.274;10.470;2022-08-01T02:43:12;100332.69;;;19.33;100.00
15662;BME280;7931;52.274;10.470;2022-08-01T02:45:42;100331.13;;;19.38;100.00
15662;BME280;7931;52.274;10.470;2022-08-01T02:48:11;100330.28;;;19.38;100.00
15662;BME280;7931;52.274;10.470;2022-08-01T02:50:39;100326.41;;;19.40;100.00
15662;BME280;7931;52.274;10.470;2022-08-01T02:53:07;100321.03;;;19.32;100.00
15662;BME280;7931;52.274;10.470;2022-08-01T02:55:36;100332.69;;;19.33;100.00
15662;BME280;7931;52.274;10.470;2022-08-01T02:58:04;100334.34;;;19.34;100.00
15662;BME280;7931;52.274;10.470;2022-08-01T03:00:31;100335.56;;;19.31;100.00
15662;BME280;7931;52.274;10.470;2022-08-01T03:02:59;100338.78;;;19.26;100.00
15662;BME280;7931;52.274;10.470;2022-08-01T03:05:25;100348.22;;;19.22;100.00
15662;BME280;7931;52.274;10.470;2022-08-01T03:07:53;100343.84;;;19.21;100.00
15662;BME280;7931;52.274;10.470;2022-08-01T03:10:19;100355.03;;;19.10;100.00
15662;BME280;7931;52.274;10.470;2022-08-01T03:12:46;100348.75;;;19.10;100.00
15662;BME280;7931;52.274;10.470;2022-08-01T03:15:14;100348.63;;;19.11;100.00
15662;BME280;7931;52.274;10.470;2022-08-01T03:17:43;100356.72;;;19.11;100.00
15662;BME280;7931;52.274;10.470;2022-08-01T03:20:12;100359.09;;;19.06;100.00
15662;BME280;7931;52.274;10.470;2022-08-01T03:22:38;100361.47;;;19.01;100.00
15662;BME280;7931;52.274;10.470;2022-08-01T03:25:05;100366.50;;;19.04;100.00
15662;BME280;7931;52.274;10.470;2022-08-01T03:27:32;100366.84;;;18.93;100.00
15662;BME280;7931;52.274;10.470;2022-08-01T03:30:02;100373.97;;;18.86;100.00
15662;BME280;7931;52.274;10.470;2022-08-01T03:32:29;100377.66;;;18.85;100.00
15662;BME280;7931;52.274;10.470;2022-08-01T03:34:55;100389.28;;;18.85;100.00
15662;BME280;7931;52.274;10.470;2022-08-01T03:37:27;100377.31;;;18.88;100.00
15662;BME280;7931;52.274;10.470;2022-08-01T03:40:05;100385.41;;;18.80;100.00
15662;BME280;7931;52.274;10.470;2022-08-01T03:42:37;100383.22;;;18.83;100.00
15662;BME280;7931;52.274;10.470;2022-08-01T03:45:07;100384.91;;;18.84;100.00
15662;BME280;7931;52.274;10.470;2022-08-01T03:47:35;100383.88;;;18.85;100.00
15662;BME280;7931;52.274;10.470;2022-08-01T03:50:03;100380.84;;;18.80;100.00
15662;BME280;7931;52.274;10.470;2022-08-01T03:52:30;100383.72;;;18.79;100.00
15662;BME280;7931;52.274;10.470;2022-08-01T03:54:59;100379.53;;;18.76;100.00
15662;BME280;7931;52.274;10.470;2022-08-01T03:57:28;100382.06;;;18.78;100.00
15662;BME280;7931;52.274;10.470;2022-08-01T03:59:55;100386.59;;;18.77;100.00
15662;BME280;7931;52.274;10.470;2022-08-01T04:02:21;100396.56;;;18.77;100.00
15662;BME280;7931;52.274;10.470;2022-08-01T04:04:48;100393.84;;;18.77;100.00
15662;BME280;7931;52.274;10.470;2022-08-01T04:07:24;100393.16;;;18.74;100.00
15662;BME280;7931;52.274;10.470;2022-08-01T04:09:50;100403.63;;;18.78;100.00
15662;BME280;7931;52.274;10.470;2022-08-01T04:12:15;100398.56;;;18.74;100.00
15662;BME280;7931;52.274;10.470;2022-08-01T04:14:41;100404.47;;;18.78;100.00
15662;BME280;7931;52.274;10.470;2022-08-01T04:17:06;100398.06;;;18.79;100.00
15662;BME280;7931;52.274;10.470;2022-08-01T04:19:32;100407.16;;;18.78;100.00
15662;BME280;7931;52.274;10.470;2022-08-01T04:21:57;100415.91;;;18.88;100.00
15662;BME280;7931;52.274;10.470;2022-08-01T04:24:24;100418.44;;;18.90;100.00
15662;BME280;7931;52.274;10.470;2022-08-01T04:26:51;100410.66;;;18.95;100.00
15662;BME280;7931;52.274;10.470;2022-08-01T04:29:19;100412.00;;;18.99;100.00
15662;BME280;7931;52.274;10.470;2022-08-01T04:31:47;100413.22;;;18.96;100.00
15662;BME280;7931;52.274;10.470;2022-08-01T04:34:17;100412.34;;;19.04;100.00
15662;BME280;7931;52.274;10.470;2022-08-01T04:36:45;100418.25;;;18.99;100.00
15662;BME280;7931;52.274;10.470;2022-08-01T04:39:11;100408.66;;;18.97;100.00
15662;BME280;7931;52.274;10.470;2022-08-01T04:41:38;100422.16;;;19.05;100.00
15662;BME280;7931;52.274;10.470;2022-08-01T04:44:05;100431.59;;;19.01;100.00
15662;BME280;7931;52.274;10.470;2022-08-01T04:46:33;100425.34;;;19.00;100.00
15662;BME280;7931;52.274;10.470;2022-08-01T04:48:59;100431.06;;;18.97;100.00
15662;BME280;7931;52.274;10.470;2022-08-01T04:51:26;100432.75;;;18.98;100.00
15662;BME280;7931;52.274;10.470;2022-08-01T04:53:51;100434.09;;;18.94;100.00
15662;BME280;7931;52.274;10.470;2022-08-01T04:56:18;100438.16;;;18.98;100.00
15662;BME280;7931;52.274;10.470;2022-08-01T04:58:44;100437.97;;;19.00;100.00
15662;BME280;7931;52.274;10.470;2022-08-01T05:01:10;100451.13;;;18.95;100.00
15662;BME280;7931;52.274;10.470;2022-08-01T05:03:36;100441.34;;;19.02;100.00
15662;BME280;7931;52.274;10.470;2022-08-01T05:06:02;100443.72;;;18.97;100.00
15662;BME280;7931;52.274;10.470;2022-08-01T05:08:28;100449.44;;;19.02;100.00
15662;BME280;7931;52.274;10.470;2022-08-01T05:10:53;100453.69;;;18.96;100.00
15662;BME280;7931;52.274;10.470;2022-08-01T05:13:19;100443.72;;;18.97;100.00
15662;BME280;7931;52.274;10.470;2022-08-01T05:15:45;100448.75;;;19.00;100.00
15662;BME280;7931;52.274;10.470;2022-08-01T05:18:10;100459.72;;;18.98;100.00
15662;BME280;7931;52.274;10.470;2022-08-01T05:20:37;100453.50;;;18.98;100.00
15662;BME280;7931;52.274;10.470;2022-08-01T05:23:06;100456.69;;;19.10;100.00
15662;BME280;7931;52.274;10.470;2022-08-01T05:25:31;100465.63;;;19.02;100.00
15662;BME280;7931;52.274;10.470;2022-08-01T05:27:57;100462.44;;;19.15;100.00
15662;BME280;7931;52.274;10.470;2022-08-01T05:30:22;100465.28;;;19.13;100.00
15662;BME280;7931;52.274;10.470;2022-08-01T05:32:47;100472.72;;;19.11;100.00
15662;BME280;7931;52.274;10.470;2022-08-01T05:35:13;100467.47;;;19.10;100.00
15662;BME280;7931;52.274;10.470;2022-08-01T05:37:38;100466.31;;;19.20;100.00
15662;BME280;7931;52.274;10.470;2022-08-01T05:40:04;100471.88;;;19.11;100.00
15662;BME280;7931;52.274;10.470;2022-08-01T05:42:30;100469.66;;;19.22;100.00
15662;BME280;7931;52.274;10.470;2022-08-01T05:44:55;100464.91;;;19.33;100.00
15662;BME280;7931;52.274;10.470;2022-08-01T05:47:21;100475.22;;;19.21;100.00
15662;BME280;7931;52.274;10.470;2022-08-01T05:49:46;100479.09;;;19.26;100.00
15662;BME280;7931;52.274;10.470;2022-08-01T05:52:12;100470.34;;;19.24;100.00
15662;BME280;7931;52.274;10.470;2022-08-01T05:54:38;100479.44;;;19.23;100.00
15662;BME280;7931;52.274;10.470;2022-08-01T05:57:03;100471.69;;;19.20;100.00
15662;BME280;7931;52.274;10.470;2022-08-01T05:59:29;100472.72;;;19.11;100.00
15662;BME280;7931;52.274;10.470;2022-08-01T06:01:55;100475.56;;;19.26;100.00
15662;BME280;7931;52.274;10.470;2022-08-01T06:04:20;100490.91;;;19.25;100.00
15662;BME280;7931;52.274;10.470;2022-08-01T06:06:46;100485.19;;;19.20;100.00
15662;BME280;7931;52.274;10.470;2022-08-01T06:09:12;100478.44;;;19.16;100.00
15662;BME280;7931;52.274;10.470;2022-08-01T06:11:37;100488.88;;;19.19;100.00
15662;BME280;7931;52.274;10.470;2022-08-01T06:14:02;100497.66;;;19.21;100.00
15662;BME280;7931;52.274;10.470;2022-08-01T06:16:28;100492.59;;;19.18;100.00
15662;BME280;7931;52.274;10.470;2022-08-01T06:18:53;100490.91;;;19.17;100.00
15662;BME280;7931;52.274;10.470;2022-08-01T06:21:18;100485.84;;;19.31;100.00
15662;BME280;7931;52.274;10.470;2022-08-01T06:23:44;100495.63;;;19.40;100.00
15662;BME280;7931;52.274;10.470;2022-08-01T06:26:09;100500.66;;;19.43;100.00
15662;BME280;7931;52.274;10.470;2022-08-01T06:28:35;100496.59;;;19.47;100.00
15662;BME280;7931;52.274;10.470;2022-08-01T06:31:01;100508.41;;;19.54;100.00
15662;BME280;7931;52.274;10.470;2022-08-01T06:33:27;100510.09;;;19.55;100.00
15662;BME280;7931;52.274;10.470;2022-08-01T06:35:53;100508.75;;;19.59;100.00
15662;BME280;7931;52.274;10.470;2022-08-01T06:38:19;100513.44;;;19.57;100.00
15662;BME280;7931;52.274;10.470;2022-08-01T06:40:44;100519.88;;;19.48;100.00
15662;BME280;7931;52.274;10.470;2022-08-01T06:43:09;100526.28;;;19.39;100.00
15662;BME280;7931;52.274;10.470;2022-08-01T06:45:38;100526.16;;;19.32;100.00
15662;BME280;7931;52.274;10.470;2022-08-01T06:48:03;100529.34;;;19.27;100.00
15662;BME280;7931;52.274;10.470;2022-08-01T06:50:30;100527.00;;;19.24;100.00
15662;BME280;7931;52.274;10.470;2022-08-01T06:52:55;100531.72;;;19.22;100.00
15662;BME280;7931;52.274;10.470;2022-08-01T06:55:21;100523.78;;;19.29;100.00
15662;BME280;7931;52.274;10.470;2022-08-01T06:57:48;100523.28;;;19.34;100.00
15662;BME280;7931;52.274;10.470;2022-08-01T07:00:15;100532.38;;;19.33;100.00
15662;BME280;7931;52.274;10.470;2022-08-01T07:02:42;100527.50;;;19.36;100.00
15662;BME280;7931;52.274;10.470;2022-08-01T07:05:07;100522.78;;;19.30;100.00
15662;BME280;7931;52.274;10.470;2022-08-01T07:07:33;100527.00;;;19.33;100.00
15662;BME280;7931;52.274;10.470;2022-08-01T07:09:58;100533.91;;;19.27;100.00
15662;BME280;7931;52.274;10.470;2022-08-01T07:12:23;100534.25;;;19.24;100.00
15662;BME280;7931;52.274;10.470;2022-08-01T07:14:49;100536.94;;;19.32;100.00
15662;BME280;7931;52.274;10.470;2022-08-01T07:17:14;100533.72;;;19.37;100.00
15662;BME280;7931;52.274;10.470;2022-08-01T07:19:39;100533.06;;;19.26;100.00
15662;BME280;7931;52.274;10.470;2022-08-01T07:22:05;100541.50;;;19.32;100.00
15662;BME280;7931;52.274;10.470;2022-08-01T07:24:30;100539.81;;;19.31;100.00
15662;BME280;7931;52.274;10.470;2022-08-01T07:26:56;100535.09;;;19.41;100.00
15662;BME280;7931;52.274;10.470;2022-08-01T07:29:24;100530.03;;;19.38;100.00
15662;BME280;7931;52.274;10.470;2022-08-01T07:31:53;100536.75;;;19.42;100.00
15662;BME280;7931;52.274;10.470;2022-08-01T07:34:19;100539.81;;;19.31;100.00
15662;BME280;7931;52.274;10.470;2022-08-01T07:36:44;100539.78;;;19.47;100.00
15662;BME280;7931;52.274;10.470;2022-08-01T07:39:10;100544.34;;;19.55;100.00
15662;BME280;7931;52.274;10.470;2022-08-01T07:41:35;100543.50;;;19.62;100.00
15662;BME280;7931;52.274;10.470;2022-08-01T07:44:01;100546.72;;;19.74;100.00
15662;BME280;7931;52.274;10.470;2022-08-01T07:46:26;100545.19;;;19.80;100.00
15662;BME280;7931;52.274;10.470;2022-08-01T07:48:51;100559.50;;;19.88;100.00
15662;BME280;7931;52.274;10.470;2022-08-01T07:51:17;100547.88;;;19.88;100.00
15662;BME280;7931;52.274;10.470;2022-08-01T07:53:42;100545.31;;;19.94;100.00
15662;BME280;7931;52.274;10.470;2022-08-01T07:56:08;100554.06;;;19.96;100.00
15662;BME280;7931;52.274;10.470;2022-08-01T07:58:33;100559.13;;;20.08;100.00
15662;BME280;7931;52.274;10.470;2022-08-01T08:00:59;100552.69;;;20.09;100.00
15662;BME280;7931;52.274;10.470;2022-08-01T08:03:25;100550.13;;;20.15;100.00
15662;BME280;7931;52.274;10.470;2022-08-01T08:05:50;100556.16;;;20.25;100.00
15662;BME280;7931;52.274;10.470;2022-08-01T08:08:16;100561.28;;;20.12;100.00
15662;BME280;7931;52.274;10.470;2022-08-01T08:10:43;100561.94;;;20.22;100.00
15662;BME280;7931;52.274;10.470;2022-08-01T08:13:09;100565.88;;;20.51;100.00
15662;BME280;7931;52.274;10.470;2022-08-01T08:15:34;100562.56;;;20.72;100.00
15662;BME280;7931;52.274;10.470;2022-08-01T08:18:00;100566.13;;;20.64;100.00
15662;BME280;7931;52.274;10.470;2022-08-01T08:20:25;100576.28;;;20.62;100.00
15662;BME280;7931;52.274;10.470;2022-08-01T08:22:53;100566.78;;;20.74;100.00
15662;BME280;7931;52.274;10.470;2022-08-01T08:25:19;100568.16;;;20.70;100.00
15662;BME280;7931;52.274;10.470;2022-08-01T08:27:45;100572.19;;;20.74;100.00
15662;BME280;7931;52.274;10.470;2022-08-01T08:30:11;100568.59;;;20.74;100.00
15662;BME280;7931;52.274;10.470;2022-08-01T08:32:37;100569.91;;;20.86;100.00
15662;BME280;7931;52.274;10.470;2022-08-01T08:35:04;100570.25;;;21.06;100.00
15662;BME280;7931;52.274;10.470;2022-08-01T08:37:30;100579.41;;;21.05;100.00
15662;BME280;7931;52.274;10.470;2022-08-01T08:39:55;100583.00;;;20.97;100.00
15662;BME280;7931;52.274;10.470;2022-08-01T08:42:21;100577.44;;;20.99;100.00
15662;BME280;7931;52.274;10.470;2022-08-01T08:44:47;100581.59;;;21.10;100.00
15662;BME280;7931;52.274;10.470;2022-08-01T08:47:14;100579.31;;;20.98;100.00
15662;BME280;7931;52.274;10.470;2022-08-01T08:49:42;100580.75;;;21.09;100.00
15662;BME280;7931;52.274;10.470;2022-08-01T08:52:08;100578.34;;;21.14;100.00
15662;BME280;7931;52.274;10.470;2022-08-01T08:54:35;100580.31;;;20.97;100.00
15662;BME280;7931;52.274;10.470;2022-08-01T08:57:02;100585.91;;;20.96;100.00
15662;BME280;7931;52.274;10.470;2022-08-01T08:59:27;100588.66;;;20.88;100.00
15662;BME280;7931;52.274;10.470;2022-08-01T09:01:53;100588.19;;;20.84;100.00
15662;BME280;7931;52.274;10.470;2022-08-01T09:04:21;100592.88;;;20.90;100.00
15662;BME280;7931;52.274;10.470;2022-08-01T09:06:47;100604.53;;;20.91;100.00
15662;BME280;7931;52.274;10.470;2022-08-01T09:09:13;100599.84;;;20.85;100.00
15662;BME280;7931;52.274;10.470;2022-08-01T09:11:38;100605.19;;;20.93;100.00
15662;BME280;7931;52.274;10.470;2022-08-01T09:14:09;100617.41;;;20.89;100.00
15662;BME280;7931;52.274;10.470;2022-08-01T09:16:37;100619.88;;;20.67;100.00
15662;BME280;7931;52.274;10.470;2022-08-01T09:19:19;100623.72;;;20.34;100.00
15662;BME280;7931;52.274;10.470;2022-08-01T09:21:56;100627.09;;;20.36;100.00
15662;BME280;7931;52.274;10.470;2022-08-01T09:24:24;100621.31;;;20.39;100.00
15662;BME280;7931;52.274;10.470;2022-08-01T09:26:50;100631.63;;;20.35;100.00
15662;BME280;7931;52.274;10.470;2022-08-01T09:29:22;100627.03;;;20.44;100.00
15662;BME280;7931;52.274;10.470;2022-08-01T09:31:48;100634.31;;;20.51;100.00
15662;BME280;7931;52.274;10.470;2022-08-01T09:34:15;100628.91;;;20.51;100.00
15662;BME280;7931;52.274;10.470;2022-08-01T09:36:48;100629.72;;;20.60;100.00
15662;BME280;7931;52.274;10.470;2022-08-01T09:39:19;100637.09;;;20.74;100.00
15662;BME280;7931;52.274;10.470;2022-08-01T09:41:45;100640.97;;;20.80;100.00
15662;BME280;7931;52.274;10.470;2022-08-01T09:44:11;100645.13;;;20.91;100.00
15662;BME280;7931;52.274;10.470;2022-08-01T09:46:48;100653.84;;;21.01;100.00
15662;BME280;7931;52.274;10.470;2022-08-01T09:49:14;100656.22;;;21.04;100.00
15662;BME280;7931;52.274;10.470;2022-08-01T09:51:39;100646.13;;;21.21;100.00
15662;BME280;7931;52.274;10.470;2022-08-01T09:54:06;100645.84;;;21.39;100.00
15662;BME280;7931;52.274;10.470;2022-08-01T09:56:40;100650.78;;;21.58;100.00
15662;BME280;7931;52.274;10.470;2022-08-01T09:59:08;100646.34;;;21.80;100.00
15662;BME280;7931;52.274;10.470;2022-08-01T10:01:50;100645.44;;;21.88;100.00
15662;BME280;7931;52.274;10.470;2022-08-01T10:04:17;100656.56;;;21.93;100.00
15662;BME280;7931;52.274;10.470;2022-08-01T10:06:45;100654.59;;;21.87;100.00
15662;BME280;7931;52.274;10.470;2022-08-01T10:09:14;100659.84;;;22.03;100.00
15662;BME280;7931;52.274;10.470;2022-08-01T10:11:42;100659.84;;;22.03;100.00
15662;BME280;7931;52.274;10.470;2022-08-01T10:14:08;100653.50;;;21.96;100.00
15662;BME280;7931;52.274;10.470;2022-08-01T10:16:35;100660.13;;;21.93;100.00
15662;BME280;7931;52.274;10.470;2022-08-01T10:19:03;100659.56;;;21.98;100.00
15662;BME280;7931;52.274;10.470;2022-08-01T10:21:33;100660.66;;;22.12;100.00
15662;BME280;7931;52.274;10.470;2022-08-01T10:24:01;100665.81;;;22.21;100.00
15662;BME280;7931;52.274;10.470;2022-08-01T10:26:29;100661.88;;;22.24;100.00
15662;BME280;7931;52.274;10.470;2022-08-01T10:28:57;100668.28;;;22.08;100.00
15662;BME280;7931;52.274;10.470;2022-08-01T10:31:23;100670.50;;;22.04;100.00
15662;BME280;7931;52.274;10.470;2022-08-01T10:33:50;100667.69;;;21.98;100.00
15662;BME280;7931;52.274;10.470;2022-08-01T10:36:18;100678.59;;;21.90;100.00
15662;BME280;7931;52.274;10.470;2022-08-01T10:38:44;100678.81;;;21.65;100.00
15662;BME280;7931;52.274;10.470;2022-08-01T10:41:12;100679.31;;;21.69;100.00
15662;BME280;7931;52.274;10.470;2022-08-01T10:43:40;100686.41;;;21.70;100.00
15662;BME280;7931;52.274;10.470;2022-08-01T10:46:05;100683.09;;;21.83;100.00
15662;BME280;7931;52.274;10.470;2022-08-01T10:51:04;100685.06;;;22.26;100.00
15662;BME280;7931;52.274;10.470;2022-08-01T10:53:29;100687.31;;;22.67;100.00
15662;BME280;7931;52.274;10.470;2022-08-01T10:56:03;100679.44;;;22.87;97.65
15662;BME280;7931;52.274;10.470;2022-08-01T10:58:38;100682.13;;;23.17;93.28
15662;BME280;7931;52.274;10.470;2022-08-01T11:01:31;100679.09;;;23.26;92.32
15662;BME280;7931;52.274;10.470;2022-08-01T11:11:57;100680.63;;;22.11;97.01
15662;BME280;7931;52.274;10.470;2022-08-01T11:14:23;100685.44;;;22.23;97.56
15662;BME280;7931;52.274;10.470;2022-08-01T11:16:48;100689.03;;;22.39;98.37
15662;BME280;7931;52.274;10.470;2022-08-01T11:19:13;100683.66;;;22.60;94.77
15662;BME280;7931;52.274;10.470;2022-08-01T11:27:20;100686.28;;;22.98;86.08
15662;BME280;7931;52.274;10.470;2022-08-01T11:35:17;100696.94;;;22.84;86.59
15662;BME280;7931;52.274;10.470;2022-08-01T11:37:43;100693.13;;;22.94;86.20
15662;BME280;7931;52.274;10.470;2022-08-01T11:40:23;100697.72;;;22.93;85.70
15662;BME280;7931;52.274;10.470;2022-08-01T11:43:17;100703.31;;;22.92;87.47
15662;BME280;7931;52.274;10.470;2022-08-01T11:45:54;100697.41;;;22.88;87.16
15662;BME280;7931;52.274;10.470;2022-08-01T11:48:22;100702.94;;;22.65;87.31
15662;BME280;7931;52.274;10.470;2022-08-01T11:50:50;100710.44;;;22.63;87.88
15662;BME280;7931;52.274;10.470;2022-08-01T11:53:16;100712.41;;;22.54;86.20
15662;BME280;7931;52.274;10.470;2022-08-01T11:55:48;100716.88;;;22.62;85.92
15662;BME280;7931;52.274;10.470;2022-08-01T11:58:15;100709.13;;;22.59;83.72
15662;BME280;7931;52.274;10.470;2022-08-01T12:00:41;100709.78;;;22.61;84.48
15662;BME280;7931;52.274;10.470;2022-08-01T12:03:08;100702.94;;;22.65;83.01
15662;BME280;7931;52.274;10.470;2022-08-01T12:05:34;100708.91;;;22.75;82.82
15662;BME280;7931;52.274;10.470;2022-08-01T12:08:03;100707.06;;;22.91;82.57
15662;BME280;7931;52.274;10.470;2022-08-01T12:10:32;100699.66;;;23.36;82.12
15662;BME280;7931;52.274;10.470;2022-08-01T12:13:04;100695.81;;;23.66;79.47
15662;BME280;7931;52.274;10.470;2022-08-01T12:15:35;100687.88;;;23.93;76.62
15662;BME280;7931;52.274;10.470;2022-08-01T12:18:03;100695.94;;;23.79;76.38
15662;BME280;7931;52.274;10.470;2022-08-01T12:20:34;100703.69;;;23.61;77.07
15662;BME280;7931;52.274;10.470;2022-08-01T12:23:03;100702.94;;;23.67;79.39
15662;BME280;7931;52.274;10.470;2022-08-01T12:25:31;100701.38;;;23.79;79.85
15662;BME280;7931;52.274;10.470;2022-08-01T12:28:00;100699.16;;;23.68;79.43
15662;BME280;7931;52.274;10.470;2022-08-01T12:30:26;100700.41;;;23.66;78.69
15662;BME280;7931;52.274;10.470;2022-08-01T12:32:55;100699.88;;;23.55;77.26
15662;BME280;7931;52.274;10.470;2022-08-01T12:35:23;100698.25;;;23.61;78.13
15662;BME280;7931;52.274;10.470;2022-08-01T12:37:50;100697.44;;;24.10;75.87
15662;BME280;7931;52.274;10.470;2022-08-01T12:40:24;100688.84;;;24.34;74.31
15662;BME280;7931;52.274;10.470;2022-08-01T12:42:55;100687.44;;;24.80;73.73
15662;BME280;7931;52.274;10.470;2022-08-01T12:45:44;100684.81;;;25.00;70.18
15662;BME280;7931;52.274;10.470;2022-08-01T12:48:11;100696.97;;;25.04;68.33
15662;BME280;7931;52.274;10.470;2022-08-01T12:50:38;100692.69;;;24.81;70.51
15662;BME280;7931;52.274;10.470;2022-08-01T12:53:05;100700.66;;;24.90;66.50
15662;BME280;7931;52.274;10.470;2022-08-01T12:55:33;100698.38;;;24.86;66.86
15662;BME280;7931;52.274;10.470;2022-08-01T12:58:10;100710.06;;;25.28;64.72
15662;BME280;7931;52.274;10.470;2022-08-01T13:00:37;100710.31;;;25.40;64.00
15662;BME280;7931;52.274;10.470;2022-08-01T13:05:46;100703.84;;;24.93;65.28
15662;BME280;7931;52.274;10.470;2022-08-01T13:08:23;100709.72;;;24.97;65.78
15662;BME280;7931;52.274;10.470;2022-08-01T13:10:49;100708.84;;;25.37;64.22
15662;BME280;7931;52.274;10.470;2022-08-01T13:13:18;100709.00;;;25.23;64.38
15662;BME280;7931;52.274;10.470;2022-08-01T13:15:45;100712.78;;;25.28;62.04
15662;BME280;7931;52.274;10.470;2022-08-01T13:18:27;100704.00;;;25.26;64.07